createdAt,value
2022-10-31T00:00:45.153Z,48.50
2022-10-31T00:01:46.149Z,80.57
2022-10-31T00:02:45.513Z,74.77
2022-10-31T00:03:46.097Z,67.68
2022-10-31T00:04:45.754Z,57.69
2022-10-31T00:05:45.914Z,75.57
2022-10-31T00:06:46.057Z,71.87
2022-10-31T00:07:46.228Z,75.41
2022-10-31T00:08:46.383Z,60.10
2022-10-31T00:09:46.535Z,48.98
2022-10-31T00:10:46.772Z,48.34
2022-10-31T00:11:46.899Z,49.47
2022-10-31T00:12:47.116Z,72.19
2022-10-31T00:13:47.242Z,48.98
2022-10-31T00:14:47.371Z,71.38
2022-10-31T00:15:47.533Z,49.15
2022-10-31T00:16:47.658Z,49.31
2022-10-31T00:17:48.782Z,49.63
2022-10-31T00:18:47.995Z,74.93
2022-10-31T00:19:49.112Z,62.68
2022-10-31T00:20:48.361Z,73.48
2022-10-31T00:21:49.534Z,49.79
2022-10-31T00:22:48.695Z,76.86
2022-10-31T00:23:49.606Z,48.98
2022-10-31T00:24:49.127Z,75.73
2022-10-31T00:25:49.165Z,49.47
2022-10-31T00:26:50.320Z,83.79
2022-10-31T00:27:49.452Z,76.22
2022-10-31T00:28:49.700Z,65.74
2022-10-31T00:29:49.863Z,49.15
2022-10-31T00:30:50.016Z,74.12
2022-10-31T00:31:50.198Z,76.86
2022-10-31T00:32:51.110Z,78.79
2022-10-31T00:33:50.503Z,54.46
2022-10-31T00:34:50.686Z,75.41
2022-10-31T00:35:50.872Z,48.66
2022-10-31T00:36:51.074Z,49.47
2022-10-31T00:37:51.223Z,77.02
2022-10-31T00:38:52.121Z,71.54
2022-10-31T00:39:51.516Z,78.15
2022-10-31T00:40:52.618Z,79.76
2022-10-31T00:41:52.146Z,52.53
2022-10-31T00:42:52.079Z,48.66
2022-10-31T00:43:52.176Z,49.31
2022-10-31T00:44:52.345Z,49.63
2022-10-31T00:45:52.493Z,76.05
2022-10-31T00:46:52.689Z,50.92
2022-10-31T00:47:52.850Z,75.73
2022-10-31T00:48:53.617Z,71.70
2022-10-31T00:49:53.626Z,48.98
2022-10-31T00:50:53.291Z,68.64
2022-10-31T00:51:53.447Z,49.63
2022-10-31T00:52:53.605Z,48.50
2022-10-31T00:53:53.812Z,74.93
2022-10-31T00:54:54.618Z,48.50
2022-10-31T00:55:54.138Z,49.47
2022-10-31T00:56:54.310Z,49.15
2022-10-31T00:57:54.553Z,49.47
2022-10-31T00:58:55.620Z,58.49
2022-10-31T00:59:54.876Z,49.63
2022-10-31T01:00:55.039Z,49.15
2022-10-31T01:01:55.377Z,76.70
2022-10-31T01:02:55.395Z,65.26
2022-10-31T01:03:55.580Z,48.98
2022-10-31T01:04:55.738Z,49.15
2022-10-31T01:05:55.899Z,48.98
2022-10-31T01:06:56.045Z,50.60
2022-10-31T01:07:56.194Z,75.25
2022-10-31T01:08:57.118Z,64.45
2022-10-31T01:09:56.519Z,51.24
2022-10-31T01:10:56.654Z,48.82
2022-10-31T01:11:56.806Z,52.53
2022-10-31T01:12:58.013Z,52.21
2022-10-31T01:13:57.092Z,56.88
2022-10-31T01:14:57.637Z,52.69
2022-10-31T01:15:57.371Z,72.19
2022-10-31T01:16:57.523Z,49.31
2022-10-31T01:17:58.071Z,66.71
2022-10-31T01:18:57.917Z,55.91
2022-10-31T01:19:58.619Z,74.28
2022-10-31T01:20:58.264Z,48.98
2022-10-31T01:21:59.123Z,63.33
2022-10-31T01:22:59.150Z,72.83
2022-10-31T01:23:58.800Z,70.42
2022-10-31T01:24:59.622Z,48.98
2022-10-31T01:26:00.126Z,76.70
2022-10-31T01:26:59.637Z,48.82
2022-10-31T01:27:59.710Z,73.96
2022-10-31T01:28:59.570Z,56.07
2022-10-31T01:29:59.741Z,76.22
2022-10-31T01:30:59.913Z,62.36
2022-10-31T01:32:00.108Z,50.92
2022-10-31T01:33:00.900Z,77.02
2022-10-31T01:34:01.126Z,48.82
2022-10-31T01:35:01.131Z,49.47
2022-10-31T01:36:00.805Z,48.82
2022-10-31T01:37:01.627Z,48.66
2022-10-31T01:38:01.167Z,50.11
2022-10-31T01:39:02.134Z,76.22
2022-10-31T01:40:02.144Z,50.76
2022-10-31T01:41:01.633Z,68.96
2022-10-31T01:42:02.626Z,69.29
2022-10-31T01:43:02.410Z,49.63
2022-10-31T01:44:02.148Z,48.82
2022-10-31T01:45:02.354Z,49.63
2022-10-31T01:46:02.532Z,48.98
2022-10-31T01:47:02.707Z,49.31
2022-10-31T01:48:03.030Z,66.71
2022-10-31T01:49:03.034Z,53.66
2022-10-31T01:50:03.647Z,72.35
2022-10-31T01:51:03.405Z,52.69
2022-10-31T01:52:04.147Z,73.15
2022-10-31T01:53:03.770Z,48.50
2022-10-31T01:54:03.923Z,48.34
2022-10-31T01:55:04.635Z,48.82
2022-10-31T01:56:04.279Z,48.82
2022-10-31T01:57:04.448Z,48.82
2022-10-31T01:58:05.188Z,49.95
2022-10-31T01:59:04.739Z,50.27
2022-10-31T02:00:04.895Z,49.47
2022-10-31T02:01:07.914Z,49.31
2022-10-31T02:02:05.402Z,50.11
2022-10-31T02:03:05.480Z,69.29
2022-10-31T02:04:06.136Z,48.34
2022-10-31T02:05:05.775Z,48.66
2022-10-31T02:06:05.939Z,48.66
2022-10-31T02:07:06.638Z,48.66
2022-10-31T02:08:06.268Z,48.50
2022-10-31T02:09:07.139Z,48.50
2022-10-31T02:10:07.149Z,48.66
2022-10-31T02:11:06.781Z,50.43
2022-10-31T02:12:06.962Z,49.31
2022-10-31T02:13:07.102Z,48.66
2022-10-31T02:14:07.263Z,48.50
2022-10-31T02:15:08.140Z,48.34
2022-10-31T02:16:07.653Z,58.17
2022-10-31T02:17:07.849Z,71.54
2022-10-31T02:18:08.010Z,57.20
2022-10-31T02:19:08.159Z,48.34
2022-10-31T02:20:08.300Z,48.34
2022-10-31T02:21:08.441Z,51.56
2022-10-31T02:22:08.660Z,73.32
2022-10-31T02:23:08.811Z,48.50
2022-10-31T02:24:08.980Z,47.86
2022-10-31T02:25:09.131Z,52.53
2022-10-31T02:26:09.296Z,73.48
2022-10-31T02:27:09.441Z,48.18
2022-10-31T02:28:09.625Z,49.63
2022-10-31T02:29:09.829Z,73.15
2022-10-31T02:30:09.976Z,63.65
2022-10-31T02:31:10.649Z,75.57
2022-10-31T02:32:10.296Z,52.37
2022-10-31T02:33:10.448Z,48.50
2022-10-31T02:34:10.595Z,47.70
2022-10-31T02:35:11.660Z,54.46
2022-10-31T02:36:10.892Z,51.72
2022-10-31T02:37:11.653Z,48.82
2022-10-31T02:38:11.180Z,50.27
2022-10-31T02:39:11.341Z,52.85
2022-10-31T02:40:11.482Z,73.15
2022-10-31T02:41:11.620Z,47.53
2022-10-31T02:42:11.746Z,48.02
2022-10-31T02:43:11.912Z,53.50
2022-10-31T02:44:12.101Z,48.66
2022-10-31T02:45:12.657Z,48.66
2022-10-31T02:46:12.430Z,48.50
2022-10-31T02:47:12.582Z,48.18
2022-10-31T02:48:12.731Z,49.31
2022-10-31T02:49:12.870Z,57.85
2022-10-31T02:50:13.020Z,72.35
2022-10-31T02:51:13.173Z,59.46
2022-10-31T02:52:13.350Z,53.50
2022-10-31T02:53:13.494Z,49.79
2022-10-31T02:54:13.657Z,48.50
2022-10-31T02:55:14.654Z,49.15
2022-10-31T02:56:14.077Z,48.66
2022-10-31T02:57:14.309Z,49.47
2022-10-31T02:58:14.536Z,76.05
2022-10-31T02:59:15.673Z,74.28
2022-10-31T03:00:15.647Z,49.15
2022-10-31T03:01:15.327Z,52.69
2022-10-31T03:02:15.476Z,51.40
2022-10-31T03:03:15.666Z,48.82
2022-10-31T03:04:15.693Z,81.05
2022-10-31T03:05:15.859Z,56.56
2022-10-31T03:06:16.014Z,73.48
2022-10-31T03:07:16.673Z,71.87
2022-10-31T03:08:17.151Z,78.15
2022-10-31T03:09:17.174Z,75.25
2022-10-31T03:10:17.687Z,61.07
2022-10-31T03:11:17.653Z,49.47
2022-10-31T03:12:17.162Z,74.93
2022-10-31T03:13:17.250Z,74.12
2022-10-31T03:14:18.152Z,76.05
2022-10-31T03:15:17.531Z,75.25
2022-10-31T03:16:17.698Z,52.05
2022-10-31T03:17:17.845Z,76.54
2022-10-31T03:18:18.681Z,77.50
2022-10-31T03:19:18.181Z,49.47
2022-10-31T03:20:18.370Z,48.66
2022-10-31T03:21:18.514Z,49.63
2022-10-31T03:22:18.694Z,69.61
2022-10-31T03:23:19.656Z,76.54
2022-10-31T03:24:19.036Z,79.76
2022-10-31T03:25:19.211Z,61.39
2022-10-31T03:26:19.368Z,76.54
2022-10-31T03:27:19.517Z,49.63
2022-10-31T03:28:20.223Z,78.96
2022-10-31T03:29:19.918Z,76.86
2022-10-31T03:30:20.093Z,48.98
2022-10-31T03:31:20.298Z,72.03
2022-10-31T03:32:20.424Z,75.73
2022-10-31T03:33:20.566Z,71.38
2022-10-31T03:34:20.707Z,72.67
2022-10-31T03:35:21.657Z,75.89
2022-10-31T03:36:21.016Z,70.42
2022-10-31T03:37:21.142Z,49.15
2022-10-31T03:38:21.273Z,79.28
2022-10-31T03:39:22.164Z,63.81
2022-10-31T03:40:22.661Z,71.22
2022-10-31T03:41:21.895Z,77.83
2022-10-31T03:42:21.991Z,59.94
2022-10-31T03:44:22.440Z,75.57
2022-10-31T03:45:22.560Z,73.32
2022-10-31T03:46:22.705Z,55.59
2022-10-31T03:47:22.854Z,71.70
2022-10-31T03:48:23.665Z,74.12
2022-10-31T03:49:23.159Z,80.24
2022-10-31T03:50:24.193Z,75.89
2022-10-31T03:51:23.561Z,72.35
2022-10-31T03:52:23.757Z,76.70
2022-10-31T03:53:23.927Z,67.35
2022-10-31T03:54:24.712Z,72.99
2022-10-31T03:55:24.219Z,74.44
2022-10-31T03:56:24.380Z,76.70
2022-10-31T03:57:24.553Z,77.02
2022-10-31T03:58:24.714Z,73.32
2022-10-31T03:59:24.845Z,76.05
2022-10-31T04:00:24.990Z,75.73
2022-10-31T04:01:25.301Z,73.64
2022-10-31T04:02:26.351Z,72.83
2022-10-31T04:03:25.524Z,78.31
2022-10-31T04:04:25.673Z,73.64
2022-10-31T04:05:25.801Z,72.35
2022-10-31T04:06:26.040Z,74.77
2022-10-31T04:07:26.188Z,78.63
2022-10-31T04:08:26.319Z,77.99
2022-10-31T04:09:26.453Z,77.83
2022-10-31T04:10:31.906Z,75.89
2022-10-31T04:11:28.772Z,78.96
2022-10-31T04:12:26.980Z,77.50
2022-10-31T04:13:27.156Z,86.37
2022-10-31T04:14:27.339Z,78.79
2022-10-31T04:15:27.508Z,77.67
2022-10-31T04:16:27.644Z,77.02
2022-10-31T04:17:28.669Z,73.64
2022-10-31T04:18:28.025Z,77.02
2022-10-31T04:19:28.178Z,78.96
2022-10-31T04:20:28.686Z,77.18
2022-10-31T04:21:28.563Z,79.12
2022-10-31T04:23:02.104Z,75.41
2022-10-31T04:23:28.827Z,80.41
2022-10-31T04:24:28.947Z,79.28
2022-10-31T04:25:29.211Z,77.67
2022-10-31T04:26:29.221Z,78.47
2022-10-31T04:27:30.202Z,78.47
2022-10-31T04:28:29.566Z,78.31
2022-10-31T04:29:29.804Z,76.22
2022-10-31T04:30:30.212Z,74.12
2022-10-31T04:31:30.060Z,76.22
2022-10-31T04:32:30.203Z,77.83
2022-10-31T04:33:30.716Z,73.96
2022-10-31T04:34:31.201Z,78.96
2022-10-31T04:35:30.697Z,77.83
2022-10-31T04:36:31.703Z,79.28
2022-10-31T04:37:31.070Z,77.02
2022-10-31T04:38:31.218Z,79.76
2022-10-31T04:39:32.203Z,79.76
2022-10-31T04:40:32.213Z,78.47
2022-10-31T04:41:31.726Z,76.22
2022-10-31T04:42:32.704Z,78.63
2022-10-31T04:43:32.118Z,79.12
2022-10-31T04:44:32.308Z,77.34
2022-10-31T04:45:33.208Z,80.08
2022-10-31T04:46:32.581Z,79.76
2022-10-31T04:47:32.729Z,79.28
2022-10-31T04:48:32.898Z,75.09
2022-10-31T04:49:33.099Z,78.47
2022-10-31T04:50:33.255Z,78.96
2022-10-31T04:51:33.428Z,78.31
2022-10-31T04:52:33.572Z,79.44
2022-10-31T04:53:33.739Z,79.60
2022-10-31T04:54:34.723Z,77.34
2022-10-31T04:55:34.100Z,81.53
2022-10-31T04:56:34.718Z,79.76
2022-10-31T04:57:35.491Z,78.96
2022-10-31T04:58:34.617Z,74.12
2022-10-31T04:59:34.786Z,78.31
2022-10-31T05:00:34.927Z,77.99
2022-10-31T05:01:35.183Z,77.50
2022-10-31T05:02:35.284Z,77.67
2022-10-31T05:03:35.417Z,78.31
2022-10-31T05:04:36.217Z,73.48
2022-10-31T05:05:36.220Z,76.38
2022-10-31T05:06:36.712Z,77.34
2022-10-31T05:07:36.707Z,78.15
2022-10-31T05:08:36.203Z,78.63
2022-10-31T05:09:36.352Z,79.12
2022-10-31T05:10:36.510Z,78.15
2022-10-31T05:11:37.212Z,80.73
2022-10-31T05:12:37.717Z,78.79
2022-10-31T05:13:37.074Z,77.67
2022-10-31T05:14:37.215Z,80.57
2022-10-31T05:15:37.364Z,75.73
2022-10-31T05:16:38.218Z,75.73
2022-10-31T05:17:37.724Z,77.34
2022-10-31T05:18:37.857Z,80.08
2022-10-31T05:19:38.715Z,71.22
2022-10-31T05:20:38.218Z,77.99
2022-10-31T05:21:38.370Z,78.63
2022-10-31T05:22:39.213Z,79.92
2022-10-31T05:23:42.018Z,80.57
2022-10-31T05:24:39.816Z,79.44
2022-10-31T05:25:39.041Z,80.89
2022-10-31T05:26:39.180Z,81.21
2022-10-31T05:27:39.304Z,79.28
2022-10-31T05:28:39.732Z,77.34
2022-10-31T05:29:39.733Z,77.18
2022-10-31T05:30:40.719Z,77.83
2022-10-31T05:31:40.713Z,76.86
2022-10-31T05:32:40.196Z,77.99
2022-10-31T05:33:41.218Z,80.41
2022-10-31T05:34:40.602Z,80.73
2022-10-31T05:35:40.750Z,77.67
2022-10-31T05:36:40.891Z,81.53
2022-10-31T05:37:41.024Z,77.02
2022-10-31T05:38:41.170Z,80.57
2022-10-31T05:39:41.328Z,77.83
2022-10-31T05:40:41.475Z,77.34
2022-10-31T05:41:42.221Z,76.54
2022-10-31T05:42:41.814Z,79.76
2022-10-31T05:43:41.939Z,77.83
2022-10-31T05:44:42.075Z,79.92
2022-10-31T05:45:42.199Z,77.50
2022-10-31T05:46:42.324Z,80.08
2022-10-31T05:47:42.440Z,80.73
2022-10-31T05:48:42.680Z,79.44
2022-10-31T05:49:43.235Z,78.79
2022-10-31T05:50:43.729Z,77.50
2022-10-31T05:51:43.182Z,77.99
2022-10-31T05:52:44.220Z,76.05
2022-10-31T05:53:43.542Z,80.08
2022-10-31T05:54:43.802Z,75.89
2022-10-31T05:55:44.727Z,78.79
2022-10-31T05:56:44.235Z,77.99
2022-10-31T05:57:44.738Z,78.31
2022-10-31T05:58:44.462Z,76.22
2022-10-31T05:59:45.224Z,78.31
2022-10-31T06:00:44.789Z,77.02
2022-10-31T06:01:45.159Z,72.03
2022-10-31T06:02:45.264Z,77.02
2022-10-31T06:03:46.285Z,78.47
2022-10-31T06:04:46.760Z,75.57
2022-10-31T06:05:50.695Z,79.28
2022-10-31T06:06:47.949Z,80.08
2022-10-31T06:07:46.151Z,78.79
2022-10-31T06:08:47.227Z,78.47
2022-10-31T06:09:46.434Z,82.02
2022-10-31T06:10:46.677Z,80.73
2022-10-31T06:11:47.244Z,77.34
2022-10-31T06:12:46.984Z,79.28
2022-10-31T06:13:47.246Z,79.12
2022-10-31T06:14:47.263Z,77.83
2022-10-31T06:15:47.411Z,76.22
2022-10-31T06:16:47.554Z,77.34
2022-10-31T06:17:47.688Z,79.76
2022-10-31T06:18:47.842Z,76.86
2022-10-31T06:19:48.002Z,77.83
2022-10-31T06:20:48.734Z,77.50
2022-10-31T06:21:49.229Z,78.96
2022-10-31T06:22:48.470Z,78.47
2022-10-31T06:23:48.646Z,77.18
2022-10-31T06:24:49.732Z,77.83
2022-10-31T06:25:49.003Z,81.05
2022-10-31T06:26:49.185Z,79.92
2022-10-31T06:27:49.361Z,78.31
2022-10-31T06:28:49.499Z,78.47
2022-10-31T06:29:50.238Z,79.76
2022-10-31T06:30:49.853Z,78.15
2022-10-31T06:31:49.994Z,78.31
2022-10-31T06:32:50.764Z,87.98
2022-10-31T06:33:50.288Z,79.12
2022-10-31T06:34:50.440Z,79.12
2022-10-31T06:35:50.588Z,78.63
2022-10-31T06:36:50.734Z,77.67
2022-10-31T06:37:50.858Z,79.12
2022-10-31T06:38:51.737Z,79.60
2022-10-31T06:39:51.753Z,78.79
2022-10-31T06:40:52.233Z,77.99
2022-10-31T06:41:51.617Z,78.47
2022-10-31T06:42:51.752Z,81.21
2022-10-31T06:43:51.890Z,80.08
2022-10-31T06:44:52.738Z,86.37
2022-10-31T06:45:52.737Z,79.60
2022-10-31T06:46:52.756Z,78.63
2022-10-31T06:48:15.354Z,75.73
2022-10-31T06:48:54.757Z,80.73
2022-10-31T06:49:52.839Z,80.08
2022-10-31T06:50:58.594Z,79.28
2022-10-31T06:51:55.116Z,80.24
2022-10-31T06:52:53.360Z,81.21
2022-10-31T06:53:54.238Z,80.24
2022-10-31T06:54:53.753Z,80.24
2022-10-31T06:55:54.744Z,78.79
2022-10-31T06:56:53.994Z,79.92
2022-10-31T06:57:57.594Z,77.50
2022-10-31T06:58:55.322Z,79.44
2022-10-31T06:59:55.268Z,78.15
2022-10-31T07:00:54.674Z,78.31
2022-10-31T07:01:54.887Z,79.92
2022-10-31T07:02:56.046Z,78.63
2022-10-31T07:03:55.168Z,77.67
2022-10-31T07:04:55.300Z,79.44
2022-10-31T07:05:55.489Z,80.41
2022-10-31T07:06:56.252Z,81.05
2022-10-31T07:07:55.792Z,76.54
2022-10-31T07:08:55.959Z,79.92
2022-10-31T07:09:56.739Z,78.79
2022-10-31T07:10:57.397Z,79.92
2022-10-31T07:11:57.241Z,73.48
2022-10-31T07:12:56.923Z,75.73
2022-10-31T07:13:57.256Z,77.02
2022-10-31T07:14:57.744Z,79.28
2022-10-31T07:15:57.120Z,79.44
2022-10-31T07:16:57.254Z,79.28
2022-10-31T07:17:57.393Z,81.69
2022-10-31T07:18:57.534Z,78.15
2022-10-31T07:19:57.691Z,76.70
2022-10-31T07:20:57.854Z,80.89
2022-10-31T07:21:57.993Z,78.31
2022-10-31T07:22:58.142Z,86.53
2022-10-31T07:23:58.274Z,80.08
2022-10-31T07:24:58.451Z,79.12
2022-10-31T07:25:58.604Z,77.99
2022-10-31T07:27:59.437Z,77.83
2022-10-31T07:28:59.749Z,77.34
2022-10-31T07:29:59.404Z,79.12
2022-10-31T07:30:59.618Z,81.05
2022-10-31T07:31:59.744Z,77.67
2022-10-31T07:33:00.754Z,79.44
2022-10-31T07:34:00.760Z,79.92
2022-10-31T07:35:01.251Z,79.28
2022-10-31T07:36:00.517Z,76.22
2022-10-31T07:37:00.685Z,80.41
2022-10-31T07:38:01.165Z,76.05
2022-10-31T07:39:00.987Z,80.08
2022-10-31T07:40:01.154Z,78.31
2022-10-31T07:41:02.288Z,77.99
2022-10-31T07:42:01.510Z,78.31
2022-10-31T07:43:01.675Z,81.05
2022-10-31T07:44:01.820Z,77.99
2022-10-31T07:45:02.756Z,80.73
2022-10-31T07:46:02.126Z,78.31
2022-10-31T07:47:02.258Z,77.02
2022-10-31T07:48:03.233Z,77.50
2022-10-31T07:49:02.577Z,76.38
2022-10-31T07:50:03.257Z,76.22
2022-10-31T07:51:03.265Z,79.76
2022-10-31T07:52:04.063Z,78.15
2022-10-31T07:53:03.757Z,77.50
2022-10-31T07:54:03.404Z,76.05
2022-10-31T07:55:04.261Z,78.31
2022-10-31T07:56:03.767Z,77.83
2022-10-31T07:57:04.266Z,81.05
2022-10-31T07:58:04.404Z,76.86
2022-10-31T07:59:04.357Z,78.79
2022-10-31T08:00:04.489Z,76.54
2022-10-31T08:01:04.805Z,79.60
2022-10-31T08:02:04.873Z,78.31
2022-10-31T08:03:05.291Z,77.83
2022-10-31T08:04:05.222Z,78.47
2022-10-31T08:05:05.391Z,74.77
2022-10-31T08:06:05.551Z,80.73
2022-10-31T08:07:05.773Z,76.86
2022-10-31T08:08:05.936Z,79.28
2022-10-31T08:09:06.272Z,76.22
2022-10-31T08:10:06.316Z,76.86
2022-10-31T08:11:06.468Z,82.02
2022-10-31T08:12:06.628Z,77.99
2022-10-31T08:13:06.793Z,77.34
2022-10-31T08:14:07.273Z,75.89
2022-10-31T08:15:07.131Z,77.02
2022-10-31T08:16:07.271Z,77.18
2022-10-31T08:17:08.772Z,79.92
2022-10-31T08:18:07.642Z,77.02
2022-10-31T08:19:08.277Z,79.12
2022-10-31T08:20:08.034Z,78.79
2022-10-31T08:21:08.182Z,78.96
2022-10-31T08:22:08.306Z,79.28
2022-10-31T08:23:08.458Z,74.93
2022-10-31T08:24:08.768Z,78.79
2022-10-31T08:25:09.804Z,77.99
2022-10-31T08:26:08.924Z,78.47
2022-10-31T08:27:09.789Z,78.47
2022-10-31T08:28:09.310Z,77.18
2022-10-31T08:29:09.501Z,77.67
2022-10-31T08:30:10.277Z,76.70
2022-10-31T08:31:10.773Z,75.25
2022-10-31T08:32:10.045Z,77.50
2022-10-31T08:33:10.229Z,75.73
2022-10-31T08:34:10.410Z,76.38
2022-10-31T08:35:10.588Z,77.34
2022-10-31T08:36:10.755Z,87.17
2022-10-31T08:37:11.771Z,79.12
2022-10-31T08:38:11.070Z,77.99
2022-10-31T08:39:11.265Z,80.24
2022-10-31T08:40:11.443Z,78.31
2022-10-31T08:41:11.615Z,74.93
2022-10-31T08:42:11.767Z,78.15
2022-10-31T08:43:11.931Z,76.38
2022-10-31T08:44:12.770Z,79.76
2022-10-31T08:45:12.774Z,75.09
2022-10-31T08:46:12.410Z,76.38
2022-10-31T08:47:12.542Z,77.67
2022-10-31T08:48:12.733Z,78.79
2022-10-31T08:49:12.874Z,77.50
2022-10-31T08:50:13.774Z,78.47
2022-10-31T08:51:13.270Z,78.96
2022-10-31T08:52:14.691Z,78.47
2022-10-31T08:53:14.621Z,77.99
2022-10-31T08:54:13.789Z,74.93
2022-10-31T08:55:13.925Z,78.79
2022-10-31T08:56:14.062Z,77.67
2022-10-31T08:57:14.771Z,74.28
2022-10-31T08:58:14.434Z,78.47
2022-10-31T08:59:15.275Z,80.08
2022-10-31T09:00:15.784Z,76.54
2022-10-31T09:01:15.872Z,76.86
2022-10-31T09:02:15.145Z,74.77
2022-10-31T09:03:16.317Z,75.73
2022-10-31T09:04:15.552Z,83.14
2022-10-31T09:05:16.287Z,77.02
2022-10-31T09:06:16.044Z,77.02
2022-10-31T09:07:20.921Z,77.83
2022-10-31T09:08:17.471Z,77.02
2022-10-31T09:09:16.515Z,77.18
2022-10-31T09:10:16.706Z,76.70
2022-10-31T09:11:17.797Z,78.96
2022-10-31T09:12:17.779Z,76.22
2022-10-31T09:13:17.295Z,74.77
2022-10-31T09:14:17.281Z,76.05
2022-10-31T09:15:18.288Z,76.86
2022-10-31T09:16:17.679Z,77.18
2022-10-31T09:17:18.822Z,77.83
2022-10-31T09:18:18.056Z,78.63
2022-10-31T09:19:18.232Z,77.99
2022-10-31T09:20:19.286Z,79.28
2022-10-31T09:21:18.562Z,73.48
2022-10-31T09:22:19.283Z,77.02
2022-10-31T09:23:19.784Z,77.67
2022-10-31T09:24:19.032Z,77.50
2022-10-31T09:25:19.170Z,76.86
2022-10-31T09:26:19.317Z,76.05
2022-10-31T09:27:19.440Z,76.54
2022-10-31T09:28:19.598Z,78.47
2022-10-31T09:29:19.771Z,74.77
2022-10-31T09:30:19.928Z,75.41
2022-10-31T09:31:20.100Z,75.73
2022-10-31T09:32:20.300Z,76.86
2022-10-31T09:33:20.474Z,75.25
2022-10-31T09:34:20.802Z,75.89
2022-10-31T09:35:24.678Z,76.05
2022-10-31T09:36:22.789Z,77.99
2022-10-31T09:37:21.141Z,75.41
2022-10-31T09:38:21.314Z,76.38
2022-10-31T09:39:21.457Z,76.54
2022-10-31T09:40:22.344Z,75.25
2022-10-31T09:41:21.761Z,80.73
2022-10-31T09:42:21.912Z,77.18
2022-10-31T09:43:22.841Z,76.38
2022-10-31T09:44:22.242Z,75.09
2022-10-31T09:45:23.290Z,75.25
2022-10-31T09:46:22.809Z,75.89
2022-10-31T09:47:22.710Z,77.50
2022-10-31T09:48:23.793Z,79.44
2022-10-31T09:49:23.861Z,76.70
2022-10-31T09:50:23.329Z,76.22
2022-10-31T09:51:23.531Z,77.83
2022-10-31T09:52:24.314Z,76.22
2022-10-31T09:53:24.797Z,75.41
2022-10-31T09:54:24.086Z,77.34
2022-10-31T09:55:24.798Z,74.44
2022-10-31T09:56:24.482Z,77.99
2022-10-31T09:57:25.296Z,77.67
2022-10-31T09:58:25.803Z,73.15
2022-10-31T09:59:25.056Z,76.22
2022-10-31T10:00:25.816Z,77.18
2022-10-31T10:01:25.934Z,77.83
2022-10-31T10:02:25.656Z,76.86
2022-10-31T10:03:26.801Z,76.38
2022-10-31T10:04:26.055Z,77.02
2022-10-31T10:05:26.802Z,75.57
2022-10-31T10:06:26.353Z,74.77
2022-10-31T10:07:26.530Z,76.22
2022-10-31T10:08:26.676Z,78.96
2022-10-31T10:09:27.813Z,76.70
2022-10-31T10:10:26.936Z,77.99
2022-10-31T10:11:27.102Z,78.63
2022-10-31T10:12:27.325Z,78.96
2022-10-31T10:13:27.447Z,77.18
2022-10-31T10:14:27.602Z,73.64
2022-10-31T10:15:27.766Z,76.54
2022-10-31T10:16:27.983Z,76.86
2022-10-31T10:17:28.142Z,81.37
2022-10-31T10:18:28.315Z,86.69
2022-10-31T10:19:28.469Z,77.18
2022-10-31T10:20:28.608Z,79.12
2022-10-31T10:21:29.786Z,75.89
2022-10-31T10:22:28.926Z,74.28
2022-10-31T10:23:29.324Z,77.50
2022-10-31T10:24:29.811Z,75.25
2022-10-31T10:25:30.309Z,78.47
2022-10-31T10:26:29.746Z,75.73
2022-10-31T10:27:30.810Z,75.57
2022-10-31T10:28:30.328Z,77.67
2022-10-31T10:29:30.812Z,80.57
2022-10-31T10:30:30.479Z,77.50
2022-10-31T10:31:31.316Z,74.77
2022-10-31T10:32:30.821Z,78.63
2022-10-31T10:33:31.033Z,77.18
2022-10-31T10:34:31.182Z,76.22
2022-10-31T10:35:31.349Z,76.22
2022-10-31T10:36:31.527Z,77.50
2022-10-31T10:37:31.658Z,77.34
2022-10-31T10:38:31.785Z,75.73
2022-10-31T10:39:31.975Z,78.79
2022-10-31T10:40:32.124Z,73.64
2022-10-31T10:41:34.566Z,77.83
2022-10-31T10:42:34.315Z,77.18
2022-10-31T10:43:32.718Z,74.93
2022-10-31T10:44:32.826Z,75.73
2022-10-31T10:45:32.953Z,77.34
2022-10-31T10:46:33.072Z,82.50
2022-10-31T10:47:33.216Z,80.24
2022-10-31T10:48:33.361Z,77.18
2022-10-31T10:49:33.524Z,77.02
2022-10-31T10:50:33.666Z,77.83
2022-10-31T10:51:54.616Z,74.93
2022-10-31T10:52:42.246Z,79.12
2022-10-31T10:53:36.203Z,77.67
2022-10-31T10:54:35.305Z,77.50
2022-10-31T10:55:35.565Z,77.34
2022-10-31T10:56:35.320Z,81.05
2022-10-31T10:57:34.879Z,75.57
2022-10-31T10:58:35.823Z,78.47
2022-10-31T10:59:35.214Z,76.86
2022-10-31T11:00:35.458Z,74.28
2022-10-31T11:01:36.322Z,77.67
2022-10-31T11:02:35.829Z,78.31
2022-10-31T11:03:35.856Z,77.02
2022-10-31T11:04:36.037Z,80.57
2022-10-31T11:05:36.185Z,76.70
2022-10-31T11:06:37.322Z,74.44
2022-10-31T11:07:36.612Z,75.89
2022-10-31T11:08:36.783Z,77.02
2022-10-31T11:09:36.976Z,77.50
2022-10-31T11:10:37.161Z,75.73
2022-10-31T11:11:37.380Z,75.41
2022-10-31T11:12:37.528Z,77.34
2022-10-31T11:13:37.687Z,77.50
2022-10-31T11:14:37.870Z,76.38
2022-10-31T11:15:38.009Z,76.38
2022-10-31T11:16:41.435Z,73.64
2022-10-31T11:17:39.377Z,77.18
2022-10-31T11:18:38.519Z,74.93
2022-10-31T11:19:38.691Z,76.22
2022-10-31T11:20:38.831Z,77.18
2022-10-31T11:21:38.979Z,77.67
2022-10-31T11:22:39.126Z,75.73
2022-10-31T11:23:39.351Z,77.18
2022-10-31T11:24:39.488Z,77.99
2022-10-31T11:25:40.337Z,76.05
2022-10-31T11:26:40.829Z,78.63
2022-10-31T11:27:40.827Z,90.88
2022-10-31T11:28:40.277Z,76.05
2022-10-31T11:29:41.331Z,76.70
2022-10-31T11:30:40.622Z,77.99
2022-10-31T11:31:41.317Z,76.38
2022-10-31T11:32:42.832Z,77.67
2022-10-31T11:33:41.343Z,74.93
2022-10-31T11:34:41.261Z,75.57
2022-10-31T11:35:41.447Z,78.15
2022-10-31T11:36:41.633Z,76.86
2022-10-31T11:37:42.333Z,76.22
2022-10-31T11:38:42.012Z,72.35
2022-10-31T11:39:42.167Z,78.15
2022-10-31T11:40:42.327Z,84.59
2022-10-31T11:41:42.482Z,76.05
2022-10-31T11:42:43.341Z,75.41
2022-10-31T11:43:42.870Z,75.25
2022-10-31T11:44:43.841Z,79.60
2022-10-31T11:45:43.212Z,74.77
2022-10-31T11:46:43.398Z,75.89
2022-10-31T11:47:43.544Z,77.99
2022-10-31T11:48:44.339Z,76.22
2022-10-31T11:49:44.844Z,77.67
2022-10-31T11:50:43.974Z,75.09
2022-10-31T11:51:44.354Z,105.06
2022-10-31T11:52:44.343Z,74.28
2022-10-31T11:53:45.413Z,75.89
2022-10-31T11:54:44.544Z,77.67
2022-10-31T11:55:45.344Z,75.41
2022-10-31T11:56:44.900Z,78.31
2022-10-31T11:57:45.149Z,77.02
2022-10-31T11:58:45.232Z,73.48
2022-10-31T11:59:45.430Z,75.41
2022-10-31T12:00:45.588Z,74.28
2022-10-31T12:01:45.878Z,75.57
2022-10-31T12:02:46.025Z,75.09
2022-10-31T12:03:46.117Z,75.57
2022-10-31T12:04:46.353Z,76.22
2022-10-31T12:05:46.475Z,78.79
2022-10-31T12:06:47.345Z,75.57
2022-10-31T12:07:48.385Z,75.89
2022-10-31T12:08:47.855Z,76.38
2022-10-31T12:09:47.274Z,77.18
2022-10-31T12:10:48.349Z,74.28
2022-10-31T12:11:47.584Z,75.89
2022-10-31T12:12:48.360Z,85.88
2022-10-31T12:13:47.887Z,78.15
2022-10-31T12:14:48.359Z,76.22
2022-10-31T12:15:49.044Z,87.01
2022-10-31T12:16:48.431Z,72.83
2022-10-31T12:17:49.435Z,75.25
2022-10-31T12:18:48.733Z,85.56
2022-10-31T12:19:51.251Z,74.93
2022-10-31T12:20:51.065Z,75.89
2022-10-31T12:21:49.178Z,78.63
2022-10-31T12:22:49.324Z,75.73
2022-10-31T12:23:49.471Z,77.50
2022-10-31T12:24:49.647Z,75.57
2022-10-31T12:25:49.808Z,88.30
2022-10-31T12:26:50.849Z,82.02
2022-10-31T12:27:50.852Z,106.67
2022-10-31T12:28:55.173Z,74.44
2022-10-31T12:29:51.422Z,79.12
2022-10-31T12:30:50.535Z,74.77
2022-10-31T12:31:50.671Z,76.70
2022-10-31T12:32:51.355Z,76.05
2022-10-31T12:33:50.990Z,80.24
2022-10-31T12:34:51.137Z,75.57
2022-10-31T12:35:51.272Z,76.22
2022-10-31T12:36:51.394Z,76.22
2022-10-31T12:37:51.523Z,78.31
2022-10-31T12:38:52.357Z,79.28
2022-10-31T12:39:51.844Z,74.93
2022-10-31T12:40:51.953Z,76.86
2022-10-31T12:41:52.210Z,79.28
2022-10-31T12:42:52.340Z,73.96
2022-10-31T12:43:52.564Z,76.38
2022-10-31T12:44:52.696Z,76.70
2022-10-31T12:45:52.840Z,77.18
2022-10-31T12:46:53.859Z,77.99
2022-10-31T12:47:53.860Z,76.86
2022-10-31T12:48:57.112Z,77.34
2022-10-31T12:49:54.356Z,76.54
2022-10-31T12:50:53.749Z,75.89
2022-10-31T12:51:53.885Z,76.38
2022-10-31T12:52:54.374Z,76.22
2022-10-31T12:53:54.878Z,77.18
2022-10-31T12:54:55.368Z,74.12
2022-10-31T12:55:55.365Z,76.05
2022-10-31T12:56:55.751Z,82.02